Time;durP1;ratioP1;P1;durP2;ratioP2;P2;SDS_P1;SDS_P2;PMS_P1;PMS_P2;Temp;Humidity;BMP_temperature;BMP_pressure;BME280_temperature;BME280_humidity;BME280_pressure;Samples;Min_cycle;Max_cycle;Signal;HPM_P1;HPM_P2
2023/02/15 00:01:08;;;;;;;30.88;18.58;;;4.30;1.00;;;;;;5094790;28;20212;-79
2023/02/15 00:03:35;;;;;;;35.88;20.58;;;4.10;1.00;;;;;;5094962;28;20221;-79
2023/02/15 00:06:02;;;;;;;32.05;19.35;;;3.70;1.00;;;;;;5095392;28;20580;-79
2023/02/15 00:08:28;;;;;;;32.25;20.60;;;4.00;1.00;;;;;;5094685;28;20198;-78
2023/02/15 00:11:05;;;;;;;36.83;20.98;;;3.90;1.00;;;;;;5094086;28;20691;-79
2023/02/15 00:13:31;;;;;;;36.20;20.65;;;4.40;1.00;;;;;;5094039;28;20291;-78
2023/02/15 00:16:02;;;;;;;40.83;22.45;;;4.20;1.00;;;;;;5095307;28;20628;-78
2023/02/15 00:18:30;;;;;;;38.45;22.27;;;3.70;1.00;;;;;;5104886;28;20186;-78
2023/02/15 00:20:57;;;;;;;38.85;21.92;;;4.30;12.40;;;;;;5100164;28;20201;-79
2023/02/15 00:23:23;;;;;;;33.60;20.23;;;4.40;28.80;;;;;;5101287;28;20564;-79
2023/02/15 00:25:50;;;;;;;42.45;21.27;;;3.80;1.00;;;;;;5099998;28;20693;-79
2023/02/15 00:28:17;;;;;;;31.98;21.20;;;4.10;17.20;;;;;;5102444;28;20598;-80
2023/02/15 00:30:44;;;;;;;36.80;21.45;;;3.70;73.50;;;;;;5101689;28;20297;-79
2023/02/15 00:33:11;;;;;;;44.67;22.15;;;4.00;1.00;;;;;;5099618;28;20225;-79
2023/02/15 00:35:39;;;;;;;33.47;20.48;;;3.60;1.00;;;;;;5098975;28;20198;-78
2023/02/15 00:38:06;;;;;;;37.60;19.88;;;3.80;99.90;;;;;;5099312;28;20289;-78
2023/02/15 00:40:32;;;;;;;39.83;22.17;;;3.60;99.90;;;;;;5098460;28;20201;-79
2023/02/15 00:43:00;;;;;;;36.15;20.73;;;3.30;99.90;;;;;;5100234;28;20241;-79
2023/02/15 00:45:27;;;;;;;39.97;21.38;;;3.50;99.90;;;;;;5119921;28;20193;-78
2023/02/15 00:47:54;;;;;;;36.30;18.98;;;3.70;99.90;;;;;;5120238;28;20193;-77
2023/02/15 00:50:20;;;;;;;46.80;21.83;;;3.70;99.90;;;;;;5109969;28;20624;-78
2023/02/15 00:52:48;;;;;;;34.83;19.65;;;3.60;99.90;;;;;;5098335;28;20228;-80
2023/02/15 00:55:15;;;;;;;35.70;20.75;;;3.50;99.90;;;;;;5098023;28;20212;-79
2023/02/15 00:57:42;;;;;;;42.40;21.95;;;;;;;;;;5100226;28;20304;-78
2023/02/15 01:00:10;;;;;;;38.70;20.92;;;3.10;99.90;;;;;;5097104;28;20209;-79
2023/02/15 01:02:37;;;;;;;48.92;22.88;;;3.40;99.90;;;;;;5097475;28;20234;-79
2023/02/15 01:05:05;;;;;;;39.85;20.48;;;3.40;35.70;;;;;;5098476;28;20198;-79
2023/02/15 01:07:32;;;;;;;37.60;21.63;;;3.50;89.10;;;;;;5097412;28;20640;-78
2023/02/15 01:10:00;;;;;;;35.72;19.83;;;3.00;99.90;;;;;;5097707;28;20209;-78
2023/02/15 01:12:27;;;;;;;39.95;21.92;;;2.50;99.90;;;;;;5098494;28;20248;-79
2023/02/15 01:14:54;;;;;;;40.35;21.75;;;3.40;99.90;;;;;;5098566;28;20221;-80
2023/02/15 01:17:21;;;;;;;37.00;21.30;;;3.20;99.90;;;;;;5104424;28;20281;-79
2023/02/15 01:19:47;;;;;;;42.55;22.38;;;3.40;99.90;;;;;;5099532;28;20208;-79
2023/02/15 01:22:14;;;;;;;39.30;20.73;;;3.20;99.90;;;;;;5099793;28;20586;-80
2023/02/15 01:24:42;;;;;;;42.85;22.42;;;3.50;99.90;;;;;;5098974;28;20198;-78
2023/02/15 01:27:10;;;;;;;44.17;22.73;;;2.80;99.90;;;;;;5098449;28;20202;-80
2023/02/15 01:29:37;;;;;;;52.13;23.90;;;3.50;99.90;;;;;;5096951;28;20288;-79
2023/02/15 01:32:04;;;;;;;42.83;21.85;;;3.20;99.90;;;;;;5099880;28;20237;-79
2023/02/15 01:34:31;;;;;;;42.08;22.95;;;3.40;99.90;;;;;;5100703;28;20217;-78
2023/02/15 01:36:58;;;;;;;46.65;24.58;;;3.50;99.90;;;;;;5101137;28;20212;-78
2023/02/15 01:39:25;;;;;;;42.17;20.75;;;3.30;99.90;;;;;;5100359;28;20206;-78
2023/02/15 01:41:51;;;;;;;46.05;24.33;;;3.50;99.90;;;;;;5101227;28;20581;-78
2023/02/15 01:44:57;;;;;;;50.95;23.80;;;3.20;99.90;;;;;;5101600;28;20297;-78
2023/02/15 01:47:32;;;;;;;45.88;22.90;;;3.10;99.90;;;;;;5098530;28;20250;-78
2023/02/15 01:50:07;;;;;;;46.88;24.50;;;3.50;99.90;;;;;;5101989;28;20640;-78
2023/02/15 01:52:37;;;;;;;45.85;23.58;;;3.60;99.90;;;;;;5106954;28;20288;-78
2023/02/15 01:55:06;;;;;;;44.05;23.45;;;3.20;97.40;;;;;;5107241;28;20217;-78
2023/02/15 01:57:33;;;;;;;42.25;23.30;;;2.80;99.90;;;;;;5107351;28;20208;-78
2023/02/15 02:00:03;;;;;;;41.40;22.50;;;3.40;99.90;;;;;;5106883;28;20294;-78
2023/02/15 02:02:31;;;;;;;40.45;23.40;;;3.20;99.90;;;;;;5099026;28;20278;-78
2023/02/15 02:05:02;;;;;;;45.95;23.35;;;2.70;99.90;;;;;;5099915;28;20212;-78
2023/02/15 02:07:33;;;;;;;46.45;23.95;;;3.00;99.90;;;;;;5102934;28;20182;-78
2023/02/15 02:10:01;;;;;;;50.25;24.10;;;3.30;99.90;;;;;;5103529;28;20237;-79
2023/02/15 02:12:28;;;;;;;50.90;25.25;;;3.10;99.90;;;;;;5101733;28;20222;-78
2023/02/15 02:14:56;;;;;;;45.70;24.17;;;3.00;99.90;;;;;;5104717;28;20285;-78
2023/02/15 02:17:31;;;;;;;49.05;26.88;;;2.20;99.90;;;;;;5104910;28;20370;-78
2023/02/15 02:20:29;;;;;;;37.42;21.90;;;2.60;99.90;;;;;;5103400;28;20532;-78
2023/02/15 02:23:15;;;;;;;47.72;23.20;;;3.20;99.90;;;;;;5106077;28;20244;-78
2023/02/15 02:26:36;;;;;;;46.03;26.23;;;2.70;99.90;;;;;;5107422;28;20533;-78
2023/02/15 02:29:35;;;;;;;57.08;26.98;;;2.90;99.90;;;;;;5041102;28;20210;-78
2023/02/15 02:32:36;;;;;;;63.05;28.92;;;2.90;99.90;;;;;;5105651;28;20232;-78
2023/02/15 02:35:12;;;;;;;59.20;28.98;;;2.50;99.90;;;;;;5107709;28;20234;-78
2023/02/15 02:37:49;;;;;;;53.40;27.50;;;2.50;99.90;;;;;;5108226;28;20182;-77
2023/02/15 02:40:21;;;;;;;68.68;28.92;;;2.80;99.90;;;;;;5108334;28;20193;-78
2023/02/15 02:42:55;;;;;;;57.33;29.02;;;2.20;99.90;;;;;;5107050;28;20244;-77
2023/02/15 02:45:26;;;;;;;55.42;28.10;;;2.30;99.90;;;;;;5108199;28;20194;-78
2023/02/15 02:48:00;;;;;;;61.95;27.27;;;2.70;99.90;;;;;;5102600;28;20183;-78
2023/02/15 02:50:30;;;;;;;63.45;29.80;;;2.60;99.90;;;;;;5105316;28;20181;-78
2023/02/15 02:52:59;;;;;;;60.47;29.67;;;2.50;99.90;;;;;;5106069;28;20222;-78
2023/02/15 02:55:31;;;;;;;61.90;27.85;;;2.90;99.90;;;;;;5107479;28;20218;-78
2023/02/15 02:58:04;;;;;;;51.72;26.95;;;2.40;99.90;;;;;;5107511;28;20187;-78
2023/02/15 03:00:34;;;;;;;56.70;26.05;;;2.60;99.90;;;;;;5107382;28;20190;-78
2023/02/15 03:03:06;;;;;;;57.60;28.17;;;4.00;99.90;;;;;;5105818;28;20225;-78
2023/02/15 03:05:38;;;;;;;59.13;26.02;;;2.50;99.90;;;;;;5106031;28;20182;-77
2023/02/15 03:08:09;;;;;;;61.05;28.48;;;2.10;99.90;;;;;;5098490;28;20182;-78
2023/02/15 03:10:38;;;;;;;62.60;26.83;;;2.20;99.90;;;;;;5098145;28;20281;-79
2023/02/15 03:13:06;;;;;;;63.35;28.02;;;2.30;99.90;;;;;;5098385;28;20243;-80
2023/02/15 03:18:19;;;;;;;53.08;27.77;;;2.00;99.90;;;;;;5098187;28;20194;-79
2023/02/15 03:20:48;;;;;;;64.45;29.33;;;2.30;99.90;;;;;;5097276;28;20208;-78
2023/02/15 03:23:20;;;;;;;55.85;27.50;;;2.20;99.90;;;;;;5096962;28;20225;-79
2023/02/15 03:25:52;;;;;;;71.50;28.25;;;1.80;99.90;;;;;;5097041;28;20269;-78
2023/02/15 03:28:24;;;;;;;62.33;30.58;;;1.70;99.90;;;;;;5098237;28;20192;-79
2023/02/15 03:30:55;;;;;;;59.42;29.10;;;3.10;99.90;;;;;;5096604;28;20186;-78
2023/02/15 03:33:24;;;;;;;62.75;29.02;;;1.80;99.90;;;;;;5096537;28;20225;-79
2023/02/15 03:35:58;;;;;;;63.20;29.30;;;1.20;99.90;;;;;;5096677;28;20205;-80
2023/02/15 03:38:34;;;;;;;51.88;28.70;;;2.10;99.90;;;;;;5097394;28;20189;-78
2023/02/15 03:41:11;;;;;;;65.32;28.85;;;2.10;99.90;;;;;;5097641;28;20553;-79
2023/02/15 03:43:45;;;;;;;63.15;29.70;;;1.90;99.90;;;;;;5098723;28;20185;-78
2023/02/15 03:46:18;;;;;;;66.18;29.58;;;2.10;99.90;;;;;;5098788;28;20570;-79
2023/02/15 03:48:50;;;;;;;57.83;28.52;;;1.80;99.90;;;;;;5098850;28;20221;-78
2023/02/15 03:51:36;;;;;;;61.97;28.80;;;1.90;99.90;;;;;;5099130;28;20190;-78
2023/02/15 03:54:06;;;;;;;66.82;27.60;;;1.80;99.90;;;;;;5100159;28;20286;-78
2023/02/15 03:56:36;;;;;;;68.07;28.48;;;1.90;99.90;;;;;;5099112;28;20186;-79
2023/02/15 04:02:00;;;;;;;57.97;26.50;;;1.70;99.90;;;;;;5093446;28;20227;-77
2023/02/15 04:04:34;;;;;;;60.10;30.00;;;1.60;99.90;;;;;;5093704;28;20197;-78
2023/02/15 04:07:03;;;;;;;54.13;26.88;;;1.40;99.90;;;;;;5094527;28;20182;-79
2023/02/15 04:12:14;;;;;;;61.45;26.67;;;1.40;99.90;;;;;;5096108;28;20263;-78
2023/02/15 04:17:25;;;;;;;62.78;28.60;;;1.40;99.90;;;;;;5095463;28;20181;-79
2023/02/15 04:25:22;;;;;;;61.03;29.65;;;;;;;;;;5098668;28;20228;-80
2023/02/15 04:27:52;;;;;;;63.25;30.73;;;1.20;99.90;;;;;;5095659;28;20202;-78
2023/02/15 04:30:21;;;;;;;65.43;30.33;;;1.40;99.90;;;;;;5095416;28;20204;-79
2023/02/15 04:32:49;;;;;;;60.75;28.77;;;1.20;99.90;;;;;;5095025;28;20222;-78
2023/02/15 04:35:16;;;;;;;71.80;29.33;;;1.30;99.90;;;;;;5104816;28;20218;-78
2023/02/15 04:37:45;;;;;;;61.65;27.98;;;0.90;99.90;;;;;;5110169;28;20202;-78
2023/02/15 04:40:14;;;;;;;58.92;30.10;;;0.90;99.90;;;;;;5103717;28;20237;-78
2023/02/15 04:42:41;;;;;;;59.55;31.60;;;1.00;99.90;;;;;;5101186;28;20700;-79
2023/02/15 04:45:08;;;;;;;61.40;30.00;;;1.10;99.90;;;;;;5104294;28;20222;-79
2023/02/15 04:47:35;;;;;;;74.47;31.30;;;1.20;99.90;;;;;;5108652;28;20213;-80
2023/02/15 04:50:02;;;;;;;60.65;28.55;;;1.20;99.90;;;;;;5103301;28;20241;-80
2023/02/15 04:52:29;;;;;;;52.72;27.85;;;1.20;99.90;;;;;;5101384;28;20312;-79
2023/02/15 04:54:57;;;;;;;61.63;27.80;;;2.00;99.90;;;;;;5096713;28;20233;-78
2023/02/15 04:57:24;;;;;;;57.33;28.65;;;0.90;99.90;;;;;;5096904;28;20581;-80
2023/02/15 04:59:51;;;;;;;54.33;25.63;;;0.60;99.90;;;;;;5097089;28;20198;-80
2023/02/15 05:02:18;;;;;;;66.03;28.70;;;1.20;99.90;;;;;;5098701;28;20684;-80
2023/02/15 05:04:45;;;;;;;49.72;27.52;;;;;;;;;;5102242;28;20261;-80
2023/02/15 05:07:12;;;;;;;61.90;28.02;;;1.20;99.90;;;;;;5100469;28;20624;-79
2023/02/15 05:09:39;;;;;;;62.42;29.05;;;;;;;;;;5119348;28;20285;-79
2023/02/15 05:12:07;;;;;;;54.00;26.23;;;0.40;99.90;;;;;;5111813;28;20222;-80
2023/02/15 05:14:35;;;;;;;58.28;25.70;;;;;;;;;;5101584;28;20313;-79
2023/02/15 05:17:03;;;;;;;61.65;28.80;;;;;;;;;;5104050;28;20205;-79
2023/02/15 05:19:29;;;;;;;62.28;26.55;;;-0.10;99.90;;;;;;5100741;28;20202;-79
2023/02/15 05:21:56;;;;;;;53.65;25.88;;;0.30;99.90;;;;;;5101319;28;20233;-79
2023/02/15 05:29:56;;;;;;;56.88;26.48;;;0.50;99.90;;;;;;5103060;28;20332;-78
2023/02/15 05:32:23;;;;;;;55.58;25.52;;;;;;;;;;5103875;28;20222;-78
2023/02/15 05:34:50;;;;;;;65.60;25.98;;;0.80;99.90;;;;;;5105625;28;20615;-79
2023/02/15 05:37:17;;;;;;;69.97;31.08;;;0.70;99.90;;;;;;5115313;28;20205;-79
2023/02/15 05:39:44;;;;;;;56.78;28.17;;;0.80;99.90;;;;;;5114879;28;20205;-79
2023/02/15 05:42:12;;;;;;;67.07;26.73;;;1.20;99.90;;;;;;5108695;28;20251;-79
2023/02/15 05:44:39;;;;;;;65.53;29.90;;;;;;;;;;5108264;28;20262;-78
2023/02/15 05:47:07;;;;;;;85.80;33.45;;;0.60;99.90;;;;;;5106901;28;20241;-79
2023/02/15 05:49:34;;;;;;;79.93;32.75;;;;;;;;;;5103673;28;20257;-78
2023/02/15 05:52:01;;;;;;;84.40;37.15;;;0.50;1.00;;;;;;5106253;28;20222;-78
2023/02/15 05:54:28;;;;;;;85.55;36.30;;;0.20;99.90;;;;;;5104870;28;20243;-79
2023/02/15 05:56:55;;;;;;;71.22;32.45;;;0.40;1.00;;;;;;5100854;28;20212;-78
2023/02/15 05:59:24;;;;;;;76.93;29.40;;;0.30;99.90;;;;;;5098999;28;20198;-79
2023/02/15 06:01:51;;;;;;;76.15;32.85;;;0.40;1.00;;;;;;5098878;28;20229;-79
2023/02/15 06:04:17;;;;;;;76.40;29.95;;;0.20;99.90;;;;;;5099304;28;20297;-79
2023/02/15 06:06:44;;;;;;;68.75;31.30;;;;;;;;;;5105661;28;20206;-79
2023/02/15 06:09:12;;;;;;;111.03;31.17;;;-0.10;1.00;;;;;;5107534;28;20266;-79
2023/02/15 06:11:39;;;;;;;96.57;30.63;;;0.10;1.00;;;;;;5113020;28;20268;-78
2023/02/15 06:14:06;;;;;;;65.25;28.83;;;0.20;99.90;;;;;;5100801;28;20201;-77
2023/02/15 06:16:34;;;;;;;84.35;29.58;;;0.40;1.00;;;;;;5096142;28;20731;-79
2023/02/15 06:19:01;;;;;;;73.82;32.83;;;0.20;1.00;;;;;;5098480;28;20201;-79
2023/02/15 06:21:28;;;;;;;77.78;30.73;;;0.30;1.00;;;;;;5101122;28;20228;-77
2023/02/15 06:23:55;;;;;;;90.53;33.50;;;;;;;;;;5101758;28;20231;-79
2023/02/15 06:26:22;;;;;;;71.65;30.20;;;0.60;1.00;;;;;;5103989;28;20648;-79
2023/02/15 06:28:49;;;;;;;90.75;31.50;;;0.00;1.00;;;;;;5107656;28;20266;-79
2023/02/15 06:31:16;;;;;;;79.93;33.47;;;-0.10;1.00;;;;;;5100950;28;20269;-78
2023/02/15 06:33:44;;;;;;;107.35;32.53;;;-0.10;1.00;;;;;;5099486;28;20232;-80
2023/02/15 06:36:12;;;;;;;87.40;31.17;;;-0.10;99.90;;;;;;5097571;28;20206;-80
2023/02/15 06:38:39;;;;;;;74.43;29.30;;;0.30;99.90;;;;;;5099842;28;20206;-80
2023/02/15 06:41:07;;;;;;;90.93;33.83;;;-0.10;1.00;;;;;;5101076;28;20213;-79
2023/02/15 06:43:34;;;;;;;78.07;32.47;;;;;;;;;;5099115;28;20237;-79
2023/02/15 06:46:01;;;;;;;77.30;30.75;;;0.60;1.00;;;;;;5098507;28;20589;-79
2023/02/15 06:48:28;;;;;;;68.50;29.98;;;0.60;1.00;;;;;;5096945;28;20212;-79
2023/02/15 06:50:56;;;;;;;81.22;29.23;;;0.70;1.00;;;;;;5098936;28;20208;-80
2023/02/15 06:53:23;;;;;;;75.30;32.47;;;0.10;1.00;;;;;;5100076;28;20309;-79
2023/02/15 06:55:50;;;;;;;82.00;30.88;;;0.60;1.00;;;;;;5106659;28;20226;-78
2023/02/15 06:58:17;;;;;;;83.45;30.50;;;0.40;1.00;;;;;;5106048;28;20238;-78
2023/02/15 07:00:44;;;;;;;95.28;30.77;;;0.00;1.00;;;;;;5104377;28;20208;-78
2023/02/15 07:03:15;;;;;;;82.32;33.25;;;0.40;1.00;;;;;;5102061;28;20240;-80
2023/02/15 07:05:43;;;;;;;80.00;31.77;;;-0.10;1.00;;;;;;5104253;28;20186;-80
2023/02/15 07:08:11;;;;;;;79.68;32.67;;;-0.10;1.00;;;;;;5098986;28;20195;-79
2023/02/15 07:10:38;;;;;;;86.25;32.50;;;0.60;1.00;;;;;;5096368;28;20212;-79
2023/02/15 07:13:04;;;;;;;83.63;33.45;;;0.00;1.00;;;;;;5095743;28;20232;-80
2023/02/15 07:15:31;;;;;;;70.60;31.27;;;;;;;;;;5096803;28;20305;-79
2023/02/15 07:17:59;;;;;;;74.55;27.52;;;-0.90;1.00;;;;;;5097824;28;20531;-80
2023/02/15 07:20:26;;;;;;;84.68;30.60;;;0.00;1.00;;;;;;5098943;28;20201;-80
2023/02/15 07:22:53;;;;;;;85.47;28.63;;;0.00;1.00;;;;;;5098442;28;20267;-80
2023/02/15 07:25:21;;;;;;;71.03;31.55;;;0.40;1.00;;;;;;5096509;28;20201;-80
2023/02/15 07:27:49;;;;;;;71.47;28.98;;;;;;;;;;5098612;28;20202;-80
2023/02/15 07:30:17;;;;;;;77.30;28.40;;;0.60;1.00;;;;;;5096959;28;20293;-80
2023/02/15 07:35:29;;;;;;;74.82;28.30;;;0.00;1.00;;;;;;5097745;28;20217;-80
2023/02/15 07:37:56;;;;;;;98.97;39.50;;;;;;;;;;5100187;28;20228;-79
2023/02/15 07:40:24;;;;;;;93.32;36.92;;;0.40;1.00;;;;;;5098518;28;20231;-79
2023/02/15 07:42:54;;;;;;;85.50;32.20;;;0.40;1.00;;;;;;5096230;28;20222;-80
2023/02/15 07:45:22;;;;;;;74.50;29.40;;;0.30;1.00;;;;;;5096236;28;20205;-79
2023/02/15 07:47:49;;;;;;;69.35;28.55;;;0.50;1.00;;;;;;5099262;28;20201;-80
2023/02/15 07:50:16;;;;;;;82.15;29.08;;;0.10;1.00;;;;;;5105851;28;20205;-79
2023/02/15 07:52:42;;;;;;;81.78;30.33;;;0.10;1.00;;;;;;5104214;28;20226;-80
2023/02/15 07:55:12;;;;;;;72.40;30.70;;;-0.20;1.00;;;;;;5099101;28;20296;-80
2023/02/15 07:57:43;;;;;;;68.50;28.15;;;0.20;1.00;;;;;;5098866;28;20212;-80
2023/02/15 08:00:11;;;;;;;63.30;28.77;;;0.00;1.00;;;;;;5097361;28;20206;-80
2023/02/15 08:02:38;;;;;;;79.15;32.47;;;;;;;;;;5097016;28;20230;-80
2023/02/15 08:05:06;;;;;;;81.15;28.65;;;0.20;1.00;;;;;;5097128;28;20202;-79
2023/02/15 08:07:33;;;;;;;62.33;26.83;;;;;;;;;;5095038;28;20209;-79
2023/02/15 08:10:00;;;;;;;65.70;29.67;;;0.30;1.00;;;;;;5094813;28;20208;-78
2023/02/15 08:12:27;;;;;;;59.28;27.33;;;;;;;;;;5094647;28;20735;-79
2023/02/15 08:14:55;;;;;;;60.20;26.60;;;0.60;1.00;;;;;;5097361;28;20210;-80
2023/02/15 08:17:23;;;;;;;63.58;28.48;;;0.80;1.00;;;;;;5095536;28;20209;-79
2023/02/15 08:19:50;;;;;;;62.20;26.98;;;0.50;1.00;;;;;;5094873;28;20639;-80
2023/02/15 08:22:17;;;;;;;58.65;26.95;;;0.90;1.00;;;;;;5096074;28;20228;-79
2023/02/15 08:24:43;;;;;;;52.88;24.42;;;0.90;1.00;;;;;;5096124;28;20236;-79
2023/02/15 08:27:12;;;;;;;65.70;27.20;;;1.00;1.00;;;;;;5101624;28;20197;-78
2023/02/15 08:29:41;;;;;;;61.45;28.52;;;;;;;;;;5114727;28;20296;-78
2023/02/15 08:32:12;;;;;;;59.85;27.13;;;0.50;99.90;;;;;;5100220;28;20232;-78
2023/02/15 08:34:41;;;;;;;58.47;24.83;;;0.40;1.00;;;;;;5097258;28;20218;-78
2023/02/15 08:37:09;;;;;;;64.20;24.73;;;0.40;1.00;;;;;;5095988;28;20590;-78
2023/02/15 08:39:36;;;;;;;58.10;24.38;;;;;;;;;;5100079;28;20212;-80
2023/02/15 08:42:03;;;;;;;72.55;29.35;;;0.70;1.00;;;;;;5100026;28;20221;-78
2023/02/15 08:44:30;;;;;;;58.67;27.70;;;0.90;1.00;;;;;;5099584;28;20212;-80
2023/02/15 08:47:02;;;;;;;65.25;29.40;;;0.50;1.00;;;;;;5101549;28;20200;-79
2023/02/15 08:49:30;;;;;;;52.97;26.52;;;0.90;1.00;;;;;;5100477;28;20244;-80
2023/02/15 08:51:57;;;;;;;55.10;25.67;;;0.80;1.00;;;;;;5107933;28;20221;-79
2023/02/15 08:54:24;;;;;;;59.63;24.88;;;0.70;1.00;;;;;;5110780;28;20273;-78
2023/02/15 08:56:51;;;;;;;52.95;26.08;;;1.00;1.00;;;;;;5112289;28;20348;-79
2023/02/15 08:59:20;;;;;;;48.92;24.23;;;0.60;1.00;;;;;;5105759;28;20265;-79
2023/02/15 09:01:48;;;;;;;51.08;22.77;;;1.10;1.00;;;;;;5125594;22;20230;-84
2023/02/15 09:04:15;;;;;;;46.05;23.08;;;1.30;1.00;;;;;;5086598;28;20260;-84
2023/02/15 09:06:45;;;;;;;49.08;23.38;;;0.90;1.00;;;;;;5083271;28;20194;-84
2023/02/15 09:09:12;;;;;;;50.55;21.73;;;1.10;1.00;;;;;;5082161;28;20198;-84
2023/02/15 09:11:41;;;;;;;47.42;25.20;;;1.20;1.00;;;;;;5082948;28;20209;-84
2023/02/15 09:14:13;;;;;;;50.28;22.48;;;1.20;1.00;;;;;;5083456;28;20716;-84
2023/02/15 09:16:41;;;;;;;45.00;22.13;;;1.30;1.00;;;;;;5083271;28;20206;-83
2023/02/15 09:19:08;;;;;;;54.33;23.77;;;1.10;1.00;;;;;;5082957;28;20213;-84
2023/02/15 09:21:37;;;;;;;49.40;22.13;;;1.10;99.90;;;;;;5082521;28;20217;-83
2023/02/15 09:24:11;;;;;;;37.40;20.58;;;1.40;1.00;;;;;;5082378;28;20217;-84
2023/02/15 09:26:40;;;;;;;45.25;22.33;;;1.30;1.00;;;;;;5082375;28;20278;-85
2023/02/15 09:29:07;;;;;;;46.05;22.33;;;;;;;;;;5087087;28;20214;-85
2023/02/15 09:31:38;;;;;;;45.55;21.77;;;1.90;1.00;;;;;;5091347;28;20206;-84
2023/02/15 09:34:05;;;;;;;64.53;23.98;;;1.80;1.00;;;;;;5086131;28;20623;-85
2023/02/15 09:36:33;;;;;;;43.92;24.33;;;1.90;1.00;;;;;;5084555;28;20218;-85
2023/02/15 09:39:07;;;;;;;40.92;23.55;;;1.40;1.00;;;;;;5082846;28;20571;-85
2023/02/15 09:41:58;;;;;;;39.85;19.92;;;1.60;99.90;;;;;;5082965;28;20214;-85
2023/02/15 09:44:40;;;;;;;44.83;22.17;;;2.00;1.00;;;;;;5082703;28;20251;-85
2023/02/15 09:47:30;;;;;;;40.05;21.60;;;1.70;1.00;;;;;;5085990;28;20183;-84
2023/02/15 09:50:11;;;;;;;42.75;21.95;;;1.90;1.00;;;;;;5085445;28;20625;-86
2023/02/15 09:52:59;;;;;;;43.80;22.38;;;1.60;1.00;;;;;;5095696;28;20227;-84
2023/02/15 09:55:47;;;;;;;41.65;22.02;;;1.60;1.00;;;;;;5083921;28;20662;-85
2023/02/15 09:58:23;;;;;;;44.95;20.02;;;2.10;1.00;;;;;;5083728;28;20206;-84
2023/02/15 10:00:58;;;;;;;46.63;21.05;;;1.70;1.00;;;;;;5083628;28;20197;-85
2023/02/15 10:03:47;;;;;;;42.53;20.65;;;2.10;1.00;;;;;;5091434;28;20217;-82
2023/02/15 10:06:32;;;;;;;45.03;22.50;;;2.10;1.00;;;;;;5098006;28;20191;-82
2023/02/15 10:09:20;;;;;;;37.05;20.08;;;2.10;1.00;;;;;;5095634;28;20221;-84
2023/02/15 10:12:02;;;;;;;43.67;22.30;;;2.90;99.90;;;;;;5081858;28;20528;-86
2023/02/15 10:14:56;;;;;;;35.22;20.92;;;2.10;99.90;;;;;;5080546;28;20187;-85
2023/02/15 10:17:37;;;;;;;43.67;23.42;;;2.00;1.00;;;;;;5080795;28;20293;-84
2023/02/15 10:20:18;;;;;;;36.88;19.77;;;2.20;99.90;;;;;;5080819;28;20196;-85
2023/02/15 10:23:01;;;;;;;37.47;20.42;;;2.10;1.00;;;;;;5082528;28;20329;-85
2023/02/15 10:25:34;;;;;;;39.90;22.60;;;2.70;99.90;;;;;;5083390;28;20277;-85
2023/02/15 10:28:06;;;;;;;45.58;21.58;;;2.40;99.90;;;;;;5082258;28;20225;-85
2023/02/15 10:30:44;;;;;;;42.22;21.77;;;2.50;99.90;;;;;;5080310;28;20269;-84
2023/02/15 10:33:23;;;;;;;45.28;21.45;;;3.00;99.90;;;;;;5078476;28;20257;-84
2023/02/15 10:36:03;;;;;;;44.25;21.90;;;2.30;99.90;;;;;;5082552;28;20210;-85
2023/02/15 10:38:37;;;;;;;43.28;20.90;;;2.90;99.90;;;;;;5088654;28;20179;-84
2023/02/15 10:41:14;;;;;;;42.88;22.25;;;2.60;99.90;;;;;;5092280;28;20194;-83
2023/02/15 10:44:00;;;;;;;38.35;21.85;;;2.60;99.90;;;;;;5097385;28;20246;-82
2023/02/15 10:46:50;;;;;;;53.72;24.73;;;2.70;99.90;;;;;;5091731;28;20206;-84
2023/02/15 10:49:36;;;;;;;43.05;22.58;;;2.50;1.00;;;;;;5090261;28;20228;-84
2023/02/15 10:52:21;;;;;;;45.05;21.45;;;2.90;99.90;;;;;;5082577;28;20240;-84
2023/02/15 10:54:57;;;;;;;50.78;21.80;;;2.90;99.90;;;;;;5082335;28;20193;-86
2023/02/15 10:57:37;;;;;;;43.40;22.95;;;2.50;99.90;;;;;;5083099;28;20229;-86
2023/02/15 11:00:11;;;;;;;42.30;20.90;;;2.80;99.90;;;;;;5081004;28;20194;-85
2023/02/15 11:03:02;;;;;;;40.25;21.80;;;2.90;99.90;;;;;;5081689;28;20253;-86
2023/02/15 11:05:40;;;;;;;41.03;22.85;;;2.80;99.90;;;;;;5098264;28;20171;-82
2023/02/15 11:08:10;;;;;;;37.47;19.52;;;2.70;99.90;;;;;;5091900;28;20186;-84
2023/02/15 11:10:40;;;;;;;42.65;22.85;;;2.60;99.90;;;;;;5079375;28;20233;-84
2023/02/15 11:13:12;;;;;;;40.28;23.20;;;2.80;99.90;;;;;;5078888;28;20286;-83
2023/02/15 11:15:44;;;;;;;41.83;22.42;;;3.60;99.90;;;;;;5078485;28;20626;-84
2023/02/15 11:18:17;;;;;;;38.33;22.50;;;3.30;99.90;;;;;;5078769;28;20187;-83
2023/02/15 11:20:53;;;;;;;41.30;22.48;;;3.30;99.90;;;;;;5084471;28;20258;-84
2023/02/15 11:23:21;;;;;;;43.50;23.98;;;3.20;99.90;;;;;;5093904;28;20258;-83
2023/02/15 11:25:55;;;;;;;38.67;23.10;;;3.10;99.90;;;;;;5093793;28;20218;-83
2023/02/15 11:28:28;;;;;;;50.55;27.08;;;3.80;99.90;;;;;;5086601;28;20272;-84
2023/02/15 11:30:57;;;;;;;40.80;21.67;;;3.50;99.90;;;;;;5081783;28;20198;-86
2023/02/15 11:33:30;;;;;;;40.85;21.80;;;3.70;99.90;;;;;;5082198;28;20276;-84
2023/02/15 11:36:04;;;;;;;46.72;21.55;;;3.50;99.90;;;;;;5083386;28;20241;-83
2023/02/15 11:38:34;;;;;;;39.05;21.98;;;3.50;99.90;;;;;;5081368;28;20257;-84
2023/02/15 11:41:06;;;;;;;48.33;24.88;;;3.50;99.90;;;;;;5078849;28;20215;-85
2023/02/15 11:43:39;;;;;;;38.58;22.83;;;4.00;99.90;;;;;;5097387;28;20226;-85
2023/02/15 11:46:06;;;;;;;42.20;22.20;;;4.00;99.90;;;;;;5088307;28;20190;-86
2023/02/15 11:48:34;;;;;;;40.90;22.40;;;4.20;99.90;;;;;;5079455;28;20206;-83
2023/02/15 11:51:03;;;;;;;40.38;21.17;;;4.10;99.90;;;;;;5079809;28;20264;-84
2023/02/15 11:53:34;;;;;;;34.33;21.42;;;3.90;99.90;;;;;;5086919;28;20223;-85
2023/02/15 11:56:03;;;;;;;39.55;21.95;;;4.60;99.90;;;;;;5086329;28;20210;-85
2023/02/15 11:58:36;;;;;;;39.80;21.63;;;4.40;8.60;;;;;;5080960;28;20199;-84
2023/02/15 12:01:10;;;;;;;42.92;23.90;;;4.30;1.00;;;;;;5079535;28;20193;-85
2023/02/15 12:03:47;;;;;;;43.03;21.80;;;4.20;99.90;;;;;;5080225;28;20233;-85
2023/02/15 12:06:22;;;;;;;32.60;21.35;;;4.50;99.90;;;;;;5082407;28;20217;-86
2023/02/15 12:08:59;;;;;;;37.08;22.48;;;5.00;99.90;;;;;;5085210;28;20210;-85
2023/02/15 12:11:35;;;;;;;38.03;22.35;;;4.90;1.00;;;;;;5083074;28;20183;-85
2023/02/15 12:14:05;;;;;;;38.08;21.15;;;5.00;11.40;;;;;;5086441;28;20637;-85
2023/02/15 12:16:40;;;;;;;39.67;22.02;;;5.10;1.00;;;;;;5095243;28;20295;-84
2023/02/15 12:19:29;;;;;;;35.47;22.02;;;5.00;59.20;;;;;;5101260;28;20234;-83
2023/02/15 12:21:58;;;;;;;35.88;20.55;;;4.90;99.30;;;;;;5096628;28;20229;-83
2023/02/15 12:24:28;;;;;;;37.97;21.27;;;4.90;40.30;;;;;;5090043;28;20297;-84
2023/02/15 12:27:01;;;;;;;35.95;21.75;;;5.70;21.10;;;;;;5091007;28;20229;-85
2023/02/15 12:29:32;;;;;;;36.28;20.38;;;5.70;1.00;;;;;;5080941;28;20182;-84
2023/02/15 12:31:59;;;;;;;32.97;21.40;;;5.40;1.00;;;;;;5081992;28;20242;-84
2023/02/15 12:34:31;;;;;;;37.22;20.90;;;5.70;1.00;;;;;;5080792;28;20202;-84
2023/02/15 12:37:08;;;;;;;40.90;23.35;;;5.70;1.00;;;;;;5081600;28;20211;-85
2023/02/15 12:39:35;;;;;;;42.67;23.35;;;5.20;1.00;;;;;;5082326;28;20191;-85
2023/02/15 12:42:05;;;;;;;35.92;20.77;;;5.40;1.00;;;;;;5083327;28;20218;-84
2023/02/15 12:44:33;;;;;;;38.33;23.45;;;5.30;1.00;;;;;;5082670;28;20288;-85
2023/02/15 12:47:03;;;;;;;34.10;22.02;;;5.60;1.00;;;;;;5083034;28;20198;-83
2023/02/15 12:49:33;;;;;;;36.88;21.80;;;6.10;1.00;;;;;;5083490;28;20270;-85
2023/02/15 12:52:02;;;;;;;31.42;20.05;;;6.10;1.00;;;;;;5082144;28;20235;-85
2023/02/15 12:54:40;;;;;;;38.53;20.83;;;6.10;1.00;;;;;;5081220;28;20661;-85
2023/02/15 12:57:24;;;;;;;37.05;21.17;;;6.50;1.00;;;;;;5081961;28;20217;-85
2023/02/15 12:59:53;;;;;;;30.50;21.15;;;6.40;1.00;;;;;;5082691;28;20273;-84
2023/02/15 13:02:27;;;;;;;32.53;20.15;;;6.40;1.00;;;;;;5082069;28;20234;-84
2023/02/15 13:04:58;;;;;;;33.90;20.02;;;5.70;1.00;;;;;;5083350;28;20186;-86
2023/02/15 13:07:31;;;;;;;38.45;22.20;;;7.10;1.00;;;;;;5082686;28;20613;-84
2023/02/15 13:09:58;;;;;;;36.83;21.17;;;6.80;99.90;;;;;;5082140;28;20556;-84
2023/02/15 13:12:30;;;;;;;31.23;20.05;;;6.70;1.00;;;;;;5082673;28;20739;-85
2023/02/15 13:14:58;;;;;;;32.58;20.17;;;7.10;1.00;;;;;;5082186;28;20244;-87
2023/02/15 13:17:29;;;;;;;32.15;20.80;;;7.20;99.90;;;;;;5087412;28;20233;-85
2023/02/15 13:20:04;;;;;;;31.75;18.55;;;7.10;99.90;;;;;;5093886;28;20184;-84
2023/02/15 13:22:41;;;;;;;30.40;18.25;;;7.00;1.00;;;;;;5083886;28;20245;-84
2023/02/15 13:25:14;;;;;;;34.72;19.75;;;6.80;99.90;;;;;;5082089;28;20202;-85
2023/02/15 13:27:43;;;;;;;31.27;19.63;;;7.30;1.00;;;;;;5083310;28;20621;-85
2023/02/15 13:30:25;;;;;;;36.63;19.48;;;7.00;1.00;;;;;;5082304;28;20994;-85